createdAt,value
2022-08-03T04:46:01.221Z,1002.74
2022-08-03T04:47:02.193Z,1002.74
2022-08-03T04:48:03.044Z,1002.75
2022-08-03T04:49:02.246Z,1002.75
2022-08-03T04:50:02.161Z,1002.75
2022-08-03T04:51:02.165Z,1002.77
2022-08-03T04:52:02.142Z,1002.77
2022-08-03T04:53:02.126Z,1002.77
2022-08-03T04:54:02.124Z,1002.78
2022-08-03T04:55:02.114Z,1002.80
2022-08-03T04:56:02.115Z,1002.80
2022-08-03T04:57:02.084Z,1002.81
2022-08-03T04:58:02.085Z,1002.81
2022-08-03T04:59:02.064Z,1002.81
2022-08-03T05:00:03.597Z,1002.79
2022-08-03T05:01:02.065Z,1002.80
2022-08-03T05:02:02.053Z,1002.80
2022-08-03T05:03:02.019Z,1002.80
2022-08-03T05:04:02.009Z,1002.79
2022-08-03T05:05:01.997Z,1002.80
2022-08-03T05:06:11.070Z,1002.79
2022-08-03T05:07:11.746Z,1002.78
2022-08-03T05:08:01.970Z,1002.78
2022-08-03T05:09:01.948Z,1002.78
2022-08-03T05:10:03.402Z,1002.78
2022-08-03T05:11:01.942Z,1002.78
2022-08-03T05:12:01.925Z,1002.79
2022-08-03T05:13:01.911Z,1002.78
2022-08-03T05:14:01.903Z,1002.77
2022-08-03T05:15:01.891Z,1002.77
2022-08-03T05:16:01.892Z,1002.77
2022-08-03T05:17:01.863Z,1002.77
2022-08-03T05:18:01.858Z,1002.77
2022-08-03T05:19:01.846Z,1002.78
2022-08-03T05:20:01.837Z,1002.78
2022-08-03T05:21:01.839Z,1002.78
2022-08-03T05:22:01.817Z,1002.78
2022-08-03T05:23:01.800Z,1002.78
2022-08-03T05:24:01.795Z,1002.79
2022-08-03T05:25:01.785Z,1002.79
2022-08-03T05:26:01.789Z,1002.80
2022-08-03T05:27:01.767Z,1002.80
2022-08-03T05:28:01.754Z,1002.81
2022-08-03T05:29:01.743Z,1002.81
2022-08-03T05:30:31.685Z,1002.81
2022-08-03T05:31:01.747Z,1002.81
2022-08-03T05:32:06.243Z,1002.80
2022-08-03T05:33:01.712Z,1002.81
2022-08-03T05:34:01.689Z,1002.81
2022-08-03T05:35:57.589Z,1002.80
2022-08-03T05:36:08.275Z,1002.81
2022-08-03T05:37:01.660Z,1002.80
2022-08-03T05:38:01.641Z,1002.81
2022-08-03T05:39:02.936Z,1002.82
2022-08-03T05:40:01.623Z,1002.82
2022-08-03T05:41:23.688Z,1002.80
2022-08-03T05:42:01.620Z,1002.81
2022-08-03T05:43:01.593Z,1002.81
2022-08-03T05:44:01.582Z,1002.82
2022-08-03T05:45:01.587Z,1002.83
2022-08-03T05:46:11.664Z,1002.83
2022-08-03T05:47:01.574Z,1002.82
2022-08-03T05:48:01.534Z,1002.82
2022-08-03T05:49:01.644Z,1002.82
2022-08-03T05:50:01.507Z,1002.83
2022-08-03T05:51:01.522Z,1002.82
2022-08-03T05:52:14.344Z,1002.82
2022-08-03T05:53:01.500Z,1002.83
2022-08-03T05:54:01.481Z,1002.83
2022-08-03T05:55:01.472Z,1002.84
2022-08-03T05:56:03.559Z,1002.85
2022-08-03T05:57:01.541Z,1002.86
2022-08-03T05:58:01.423Z,1002.85
2022-08-03T05:59:11.556Z,1002.86
2022-08-03T06:00:01.434Z,1002.86
2022-08-03T06:01:01.413Z,1002.87
2022-08-03T06:02:01.551Z,1002.89
2022-08-03T06:03:01.403Z,1002.89
2022-08-03T06:04:01.356Z,1002.90
2022-08-03T06:05:01.350Z,1002.91
2022-08-03T06:06:01.345Z,1002.94
2022-08-03T06:07:01.355Z,1002.95
2022-08-03T06:08:01.314Z,1002.96
2022-08-03T06:09:01.313Z,1002.98
2022-08-03T06:10:35.737Z,1002.97
2022-08-03T06:11:01.294Z,1002.97
2022-08-03T06:12:01.284Z,1002.98
2022-08-03T06:13:01.269Z,1002.99
2022-08-03T06:14:01.246Z,1002.98
2022-08-03T06:15:01.241Z,1002.99
2022-08-03T06:16:01.227Z,1002.98
2022-08-03T06:17:01.242Z,1002.98
2022-08-03T06:18:02.165Z,1002.98
2022-08-03T06:19:01.197Z,1002.96
2022-08-03T06:20:01.180Z,1002.96
2022-08-03T06:21:14.921Z,1002.96
2022-08-03T06:22:01.179Z,1002.95
2022-08-03T06:23:01.514Z,1002.95
2022-08-03T06:24:01.139Z,1002.95
2022-08-03T06:25:04.099Z,1002.94
2022-08-03T06:26:01.124Z,1002.93
2022-08-03T06:27:01.124Z,1002.93
2022-08-03T06:28:01.089Z,1002.91
2022-08-03T06:29:01.086Z,1002.91
2022-08-03T06:30:01.058Z,1002.92
2022-08-03T06:31:01.193Z,1002.91
2022-08-03T06:32:01.069Z,1002.90
2022-08-03T06:33:01.045Z,1002.91
2022-08-03T06:34:32.237Z,1002.89
2022-08-03T06:35:01.032Z,1002.89
2022-08-03T06:36:01.002Z,1002.89
2022-08-03T06:37:02.378Z,1002.89
2022-08-03T06:38:00.982Z,1002.89
2022-08-03T06:39:00.979Z,1002.90
2022-08-03T06:40:00.963Z,1002.91
2022-08-03T06:41:00.958Z,1002.90
2022-08-03T06:42:00.965Z,1002.90
2022-08-03T06:43:00.934Z,1002.91
2022-08-03T06:44:02.968Z,1002.92
2022-08-03T06:45:00.921Z,1002.93
2022-08-03T06:46:00.898Z,1002.93
2022-08-03T06:47:00.907Z,1002.95
2022-08-03T06:48:00.882Z,1002.96
2022-08-03T06:49:00.895Z,1002.97
2022-08-03T06:50:16.207Z,1002.97
2022-08-03T06:51:00.854Z,1002.97
2022-08-03T06:52:03.226Z,1002.99
2022-08-03T06:53:00.835Z,1002.98
2022-08-03T06:54:00.814Z,1002.99
2022-08-03T06:55:00.812Z,1002.99
2022-08-03T06:56:00.796Z,1002.99
2022-08-03T06:57:00.789Z,1002.99
2022-08-03T06:58:03.592Z,1002.99
2022-08-03T06:59:00.764Z,1002.98
2022-08-03T07:00:06.427Z,1002.98
2022-08-03T07:01:00.794Z,1002.97
2022-08-03T07:02:00.760Z,1002.98
2022-08-03T07:03:00.738Z,1002.98
2022-08-03T07:04:00.713Z,1002.98
2022-08-03T07:05:00.702Z,1002.98
2022-08-03T07:06:00.682Z,1002.98
2022-08-03T07:07:00.681Z,1002.99
2022-08-03T07:08:00.682Z,1002.98
2022-08-03T07:09:00.664Z,1002.99
2022-08-03T07:10:00.644Z,1002.99
2022-08-03T07:11:00.639Z,1002.98
2022-08-03T07:12:00.627Z,1002.98
2022-08-03T07:13:00.634Z,1002.98
2022-08-03T07:14:00.599Z,1002.97
2022-08-03T07:15:02.277Z,1002.99
2022-08-03T07:16:00.579Z,1002.98
2022-08-03T07:17:00.576Z,1002.99
2022-08-03T07:18:00.570Z,1003.01
2022-08-03T07:19:00.557Z,1003.02
2022-08-03T07:20:00.551Z,1003.04
2022-08-03T07:21:00.529Z,1003.05
2022-08-03T07:22:04.208Z,1003.06
2022-08-03T07:23:00.557Z,1003.07
2022-08-03T07:24:00.496Z,1003.09
2022-08-03T07:25:00.487Z,1003.10
2022-08-03T07:26:00.472Z,1003.12
2022-08-03T07:27:00.467Z,1003.15
2022-08-03T07:28:00.492Z,1003.16
2022-08-03T07:29:00.454Z,1003.15
2022-08-03T07:30:00.445Z,1003.15
2022-08-03T07:31:00.424Z,1003.15
2022-08-03T07:32:00.425Z,1003.15
2022-08-03T07:33:00.423Z,1003.15
2022-08-03T07:34:00.389Z,1003.15
2022-08-03T07:35:01.361Z,1003.18
2022-08-03T07:36:00.370Z,1003.19
2022-08-03T07:37:00.359Z,1003.20
2022-08-03T07:38:00.355Z,1003.18
2022-08-03T07:39:00.336Z,1003.18
2022-08-03T07:40:00.341Z,1003.19
2022-08-03T07:41:00.323Z,1003.17
2022-08-03T07:42:00.305Z,1003.17
2022-08-03T07:43:00.309Z,1003.16
2022-08-03T07:44:00.278Z,1003.17
2022-08-03T07:45:00.300Z,1003.18
2022-08-03T07:46:00.263Z,1003.17
2022-08-03T07:47:00.508Z,1003.20
2022-08-03T07:48:00.251Z,1003.17
2022-08-03T07:49:00.319Z,1003.18
2022-08-03T07:50:00.216Z,1003.17
2022-08-03T07:51:00.212Z,1003.17
2022-08-03T07:52:00.196Z,1003.16
2022-08-03T07:53:00.213Z,1003.17
2022-08-03T07:54:00.175Z,1003.18
2022-08-03T07:55:00.173Z,1003.16
2022-08-03T07:56:00.153Z,1003.16
2022-08-03T07:57:00.143Z,1003.17
2022-08-03T07:58:00.153Z,1003.14
2022-08-03T07:59:00.125Z,1003.16
2022-08-03T08:00:01.737Z,1003.17
2022-08-03T08:01:00.180Z,1003.15
2022-08-03T08:02:00.095Z,1003.16
2022-08-03T08:03:00.094Z,1003.16
2022-08-03T08:04:00.091Z,1003.16
2022-08-03T08:05:05.256Z,1003.18
2022-08-03T08:06:00.051Z,1003.15
2022-08-03T08:07:00.040Z,1003.15
2022-08-03T08:08:00.040Z,1003.14
2022-08-03T08:09:00.125Z,1003.13
2022-08-03T08:10:00.030Z,1003.11
2022-08-03T08:11:00.017Z,1003.11
2022-08-03T08:11:59.993Z,1003.09
2022-08-03T08:12:59.986Z,1003.08
2022-08-03T08:13:59.964Z,1003.09
2022-08-03T08:14:59.956Z,1003.08
2022-08-03T08:15:59.936Z,1003.07
2022-08-03T08:17:02.356Z,1003.07
2022-08-03T08:17:59.938Z,1003.07
2022-08-03T08:18:59.907Z,1003.08
2022-08-03T08:19:59.894Z,1003.09
2022-08-03T08:20:59.884Z,1003.07
2022-08-03T08:22:02.332Z,1003.10
2022-08-03T08:23:01.421Z,1003.08
2022-08-03T08:24:01.462Z,1003.10
2022-08-03T08:25:01.328Z,1003.09
2022-08-03T08:25:59.830Z,1003.08
2022-08-03T08:26:59.823Z,1003.07
2022-08-03T08:28:29.014Z,1003.07
2022-08-03T08:28:59.808Z,1003.09
2022-08-03T08:30:07.258Z,1003.08
2022-08-03T08:30:59.785Z,1003.07
2022-08-03T08:31:59.771Z,1003.09
2022-08-03T08:32:59.769Z,1003.07
2022-08-03T08:34:04.326Z,1003.11
2022-08-03T08:34:59.746Z,1003.12
2022-08-03T08:35:59.716Z,1003.11
2022-08-03T08:36:59.747Z,1003.09
2022-08-03T08:37:59.708Z,1003.12
2022-08-03T08:38:59.698Z,1003.13
2022-08-03T08:39:59.701Z,1003.11
2022-08-03T08:40:59.669Z,1003.11
2022-08-03T08:41:59.653Z,1003.09
2022-08-03T08:42:59.667Z,1003.09
2022-08-03T08:44:00.221Z,1003.10
2022-08-03T08:44:59.632Z,1003.10
2022-08-03T08:45:59.609Z,1003.10
2022-08-03T08:46:59.602Z,1003.09
2022-08-03T08:48:01.810Z,1003.10
2022-08-03T08:48:59.649Z,1003.10
2022-08-03T08:50:09.908Z,1003.10
2022-08-03T08:50:59.571Z,1003.11
2022-08-03T08:52:01.364Z,1003.09
2022-08-03T08:52:59.537Z,1003.09
2022-08-03T08:53:59.538Z,1003.09
2022-08-03T08:55:00.196Z,1003.09
2022-08-03T08:56:00.657Z,1003.10
2022-08-03T08:56:59.502Z,1003.10
2022-08-03T08:57:59.487Z,1003.11
2022-08-03T08:58:59.495Z,1003.12
2022-08-03T08:59:59.465Z,1003.10
2022-08-03T09:00:59.511Z,1003.09
2022-08-03T09:01:59.441Z,1003.08
2022-08-03T09:02:59.439Z,1003.05
2022-08-03T09:03:59.433Z,1003.07
2022-08-03T09:05:01.934Z,1003.04
2022-08-03T09:05:59.406Z,1003.05
2022-08-03T09:07:19.130Z,1003.05
2022-08-03T09:07:59.393Z,1003.04
2022-08-03T09:08:59.389Z,1003.01
2022-08-03T09:10:05.968Z,1003.01
2022-08-03T09:10:59.366Z,1003.00
2022-08-03T09:12:20.020Z,1002.98
2022-08-03T09:12:59.346Z,1002.97
2022-08-03T09:13:59.356Z,1003.00
2022-08-03T09:15:15.937Z,1002.99
2022-08-03T09:16:00.986Z,1002.98
2022-08-03T09:16:59.298Z,1003.00
2022-08-03T09:17:59.291Z,1002.99
2022-08-03T09:18:59.290Z,1003.00
2022-08-03T09:20:03.118Z,1002.98
2022-08-03T09:21:03.810Z,1002.93
2022-08-03T09:21:59.246Z,1002.95
2022-08-03T09:22:59.234Z,1002.92
2022-08-03T09:24:02.731Z,1002.91
2022-08-03T09:25:21.999Z,1002.93
2022-08-03T09:25:59.996Z,1002.95
2022-08-03T09:26:59.193Z,1002.93
2022-08-03T09:27:59.174Z,1002.95
2022-08-03T09:29:04.121Z,1002.92
2022-08-03T09:29:59.159Z,1002.88
2022-08-03T09:30:59.145Z,1002.92
2022-08-03T09:31:59.489Z,1002.94
2022-08-03T09:32:59.127Z,1002.93
2022-08-03T09:33:59.119Z,1002.91
2022-08-03T09:34:59.101Z,1002.91
2022-08-03T09:35:59.143Z,1002.92
2022-08-03T09:36:59.078Z,1002.96
2022-08-03T09:38:11.925Z,1002.92
2022-08-03T09:38:59.079Z,1002.89
2022-08-03T09:39:59.043Z,1002.88
2022-08-03T09:41:00.640Z,1002.88
2022-08-03T09:41:59.033Z,1002.89
2022-08-03T09:42:59.013Z,1002.89
2022-08-03T09:43:59.024Z,1002.89
2022-08-03T09:44:58.993Z,1002.92
2022-08-03T09:45:58.987Z,1002.88
2022-08-03T09:46:58.969Z,1002.87
2022-08-03T09:47:58.968Z,1002.88
2022-08-03T09:48:58.998Z,1002.87
2022-08-03T09:49:58.949Z,1002.88
2022-08-03T09:51:13.593Z,1002.88
2022-08-03T09:52:31.951Z,1002.86
2022-08-03T09:52:58.914Z,1002.87
2022-08-03T09:54:00.336Z,1002.90
2022-08-03T09:54:58.890Z,1002.87
2022-08-03T09:56:34.915Z,1002.87
2022-08-03T09:56:58.878Z,1002.78
2022-08-03T09:57:58.865Z,1002.79
2022-08-03T09:58:58.863Z,1002.82
2022-08-03T10:00:04.739Z,1002.82
2022-08-03T10:00:58.985Z,1002.84
2022-08-03T10:01:58.821Z,1002.82
2022-08-03T10:02:58.831Z,1002.83
2022-08-03T10:04:03.529Z,1002.83
2022-08-03T10:04:58.796Z,1002.78
2022-08-03T10:06:00.041Z,1002.82
2022-08-03T10:06:58.768Z,1002.83
2022-08-03T10:07:58.792Z,1002.85
2022-08-03T10:08:58.757Z,1002.84
2022-08-03T10:10:28.959Z,1002.85
2022-08-03T10:10:58.875Z,1002.81
2022-08-03T10:11:58.723Z,1002.81
2022-08-03T10:12:58.702Z,1002.81
2022-08-03T10:13:58.745Z,1002.80
2022-08-03T10:14:58.687Z,1002.81
2022-08-03T10:16:22.503Z,1002.84
2022-08-03T10:16:58.664Z,1002.83
2022-08-03T10:17:58.666Z,1002.83
2022-08-03T10:18:58.645Z,1002.82
2022-08-03T10:19:58.654Z,1002.82
2022-08-03T10:20:58.660Z,1002.80
2022-08-03T10:21:58.621Z,1002.73
2022-08-03T10:22:58.605Z,1002.79
2022-08-03T10:23:58.596Z,1002.74
2022-08-03T10:24:58.597Z,1002.78
2022-08-03T10:25:58.587Z,1002.78
2022-08-03T10:26:58.564Z,1002.75
2022-08-03T10:27:58.590Z,1002.78
2022-08-03T10:28:58.556Z,1002.79
2022-08-03T10:29:58.556Z,1002.79
2022-08-03T10:30:58.517Z,1002.79
2022-08-03T10:31:58.824Z,1002.77
2022-08-03T10:32:58.498Z,1002.77
2022-08-03T10:33:58.500Z,1002.73
2022-08-03T10:34:59.836Z,1002.71
2022-08-03T10:35:58.471Z,1002.69
2022-08-03T10:36:58.462Z,1002.66
2022-08-03T10:37:58.787Z,1002.70
2022-08-03T10:38:58.439Z,1002.68
2022-08-03T10:39:58.452Z,1002.68
2022-08-03T10:40:59.197Z,1002.67
2022-08-03T10:41:58.414Z,1002.66
2022-08-03T10:42:58.396Z,1002.66
2022-08-03T10:43:58.394Z,1002.66
2022-08-03T10:44:58.392Z,1002.63
2022-08-03T10:45:58.381Z,1002.64
2022-08-03T10:46:58.356Z,1002.59
2022-08-03T10:47:58.354Z,1002.59
2022-08-03T10:48:58.378Z,1002.58
2022-08-03T10:49:58.342Z,1002.63
2022-08-03T10:50:58.317Z,1002.61
2022-08-03T10:51:58.316Z,1002.58
2022-08-03T10:52:58.297Z,1002.56
2022-08-03T10:53:58.291Z,1002.53
2022-08-03T10:54:58.290Z,1002.50
2022-08-03T10:55:58.274Z,1002.49
2022-08-03T10:56:58.428Z,1002.55
2022-08-03T10:57:59.094Z,1002.56
2022-08-03T10:58:58.241Z,1002.49
2022-08-03T10:59:58.253Z,1002.53
2022-08-03T11:00:58.262Z,1002.53
2022-08-03T11:02:00.730Z,1002.53
2022-08-03T11:02:58.195Z,1002.54
2022-08-03T11:03:58.194Z,1002.51
2022-08-03T11:04:58.199Z,1002.50
2022-08-03T11:05:58.175Z,1002.49
2022-08-03T11:06:58.162Z,1002.48
2022-08-03T11:07:58.154Z,1002.49
2022-08-03T11:08:58.136Z,1002.50
2022-08-03T11:09:58.147Z,1002.48
2022-08-03T11:10:58.120Z,1002.41
2022-08-03T11:11:58.123Z,1002.40
2022-08-03T11:12:58.093Z,1002.44
2022-08-03T11:13:58.099Z,1002.42
2022-08-03T11:14:58.097Z,1002.43
2022-08-03T11:16:00.056Z,1002.43
2022-08-03T11:16:58.064Z,1002.47
2022-08-03T11:17:58.056Z,1002.41
2022-08-03T11:18:58.044Z,1002.41
2022-08-03T11:19:58.631Z,1002.38
2022-08-03T11:20:58.018Z,1002.43
2022-08-03T11:21:58.013Z,1002.36
2022-08-03T11:22:57.999Z,1002.41
2022-08-03T11:24:04.082Z,1002.37
2022-08-03T11:24:58.004Z,1002.47
2022-08-03T11:25:57.975Z,1002.47
2022-08-03T11:26:57.961Z,1002.48
2022-08-03T11:27:57.953Z,1002.47
2022-08-03T11:28:57.940Z,1002.46
2022-08-03T11:29:57.951Z,1002.43
2022-08-03T11:30:57.939Z,1002.45
2022-08-03T11:31:57.915Z,1002.42
2022-08-03T11:32:57.898Z,1002.40
2022-08-03T11:33:57.895Z,1002.39
2022-08-03T11:34:57.901Z,1002.38
2022-08-03T11:35:57.873Z,1002.33
2022-08-03T11:36:57.856Z,1002.33
2022-08-03T11:38:03.208Z,1002.33
2022-08-03T11:38:57.868Z,1002.36
2022-08-03T11:39:57.835Z,1002.34
2022-08-03T11:40:57.840Z,1002.35
2022-08-03T11:41:57.812Z,1002.30
2022-08-03T11:42:57.801Z,1002.33
2022-08-03T11:43:57.795Z,1002.37
2022-08-03T11:44:57.787Z,1002.36
2022-08-03T11:45:57.794Z,1002.38
2022-08-03T11:46:57.763Z,1002.39
2022-08-03T11:47:57.753Z,1002.38
2022-08-03T11:48:57.775Z,1002.40
2022-08-03T11:49:57.739Z,1002.36
2022-08-03T11:50:57.737Z,1002.39
2022-08-03T11:51:57.716Z,1002.38
2022-08-03T11:52:57.696Z,1002.38
2022-08-03T11:53:57.695Z,1002.34
2022-08-03T11:54:57.692Z,1002.36
2022-08-03T11:55:57.688Z,1002.39
2022-08-03T11:56:57.658Z,1002.36
2022-08-03T11:59:01.490Z,1002.37
2022-08-03T11:59:24.246Z,1002.41
2022-08-03T11:59:57.637Z,1002.38
2022-08-03T12:00:57.635Z,1002.41
2022-08-03T12:01:57.612Z,1002.43
2022-08-03T12:02:57.726Z,1002.43
2022-08-03T12:03:57.595Z,1002.43
2022-08-03T12:04:57.583Z,1002.47
2022-08-03T12:05:57.589Z,1002.47
2022-08-03T12:06:57.560Z,1002.45
2022-08-03T12:08:03.579Z,1002.48
2022-08-03T12:08:57.545Z,1002.49
2022-08-03T12:09:58.374Z,1002.47
2022-08-03T12:10:57.538Z,1002.45
2022-08-03T12:11:59.983Z,1002.45
2022-08-03T12:12:57.501Z,1002.41
2022-08-03T12:14:46.369Z,1002.44
2022-08-03T12:14:57.493Z,1002.42
2022-08-03T12:15:57.498Z,1002.39
2022-08-03T12:16:57.472Z,1002.37
2022-08-03T12:17:58.056Z,1002.37
2022-08-03T12:18:57.447Z,1002.36
2022-08-03T12:19:57.436Z,1002.36
2022-08-03T12:20:57.457Z,1002.35
2022-08-03T12:21:57.680Z,1002.42
2022-08-03T12:22:57.406Z,1002.41
2022-08-03T12:23:57.400Z,1002.40
2022-08-03T12:24:57.383Z,1002.38
2022-08-03T12:25:57.394Z,1002.37
2022-08-03T12:26:59.470Z,1002.35
2022-08-03T12:27:57.362Z,1002.35
2022-08-03T12:28:57.343Z,1002.32
2022-08-03T12:29:59.000Z,1002.35
2022-08-03T12:30:57.347Z,1002.32
2022-08-03T12:31:57.340Z,1002.31
2022-08-03T12:32:57.306Z,1002.30
2022-08-03T12:33:59.045Z,1002.33
2022-08-03T12:34:57.293Z,1002.31
2022-08-03T12:35:57.299Z,1002.32
2022-08-03T12:36:57.268Z,1002.32
2022-08-03T12:37:57.263Z,1002.31
2022-08-03T12:38:57.248Z,1002.31
2022-08-03T12:40:02.272Z,1002.28
2022-08-03T12:40:57.249Z,1002.28
2022-08-03T12:41:57.224Z,1002.25
2022-08-03T12:42:57.210Z,1002.27
2022-08-03T12:43:57.204Z,1002.26
2022-08-03T12:44:57.194Z,1002.22
2022-08-03T12:45:57.198Z,1002.24
2022-08-03T12:46:57.170Z,1002.24
2022-08-03T12:47:57.180Z,1002.23
2022-08-03T12:48:57.203Z,1002.26
2022-08-03T12:49:57.145Z,1002.25
2022-08-03T12:50:57.147Z,1002.24
2022-08-03T12:51:57.127Z,1002.23
2022-08-03T12:52:57.110Z,1002.23
2022-08-03T12:53:57.103Z,1002.21
2022-08-03T12:54:57.093Z,1002.23
2022-08-03T12:56:05.201Z,1002.19
2022-08-03T12:56:57.080Z,1002.19
2022-08-03T12:57:57.063Z,1002.18
2022-08-03T12:58:57.052Z,1002.15
2022-08-03T12:59:57.042Z,1002.14
2022-08-03T13:00:57.028Z,1002.16
2022-08-03T13:01:57.175Z,1002.17
2022-08-03T13:03:26.715Z,1002.21
2022-08-03T13:03:57.007Z,1002.21
2022-08-03T13:04:56.991Z,1002.20
2022-08-03T13:05:56.984Z,1002.16
2022-08-03T13:07:03.089Z,1002.18
2022-08-03T13:07:56.968Z,1002.16
2022-08-03T13:08:56.951Z,1002.17
2022-08-03T13:09:56.944Z,1002.18
2022-08-03T13:10:56.927Z,1002.18
2022-08-03T13:12:02.119Z,1002.17
2022-08-03T13:12:56.915Z,1002.17
2022-08-03T13:13:56.905Z,1002.15
2022-08-03T13:14:56.899Z,1002.17
2022-08-03T13:15:56.887Z,1002.15
2022-08-03T13:16:56.885Z,1002.14
2022-08-03T13:17:56.870Z,1002.12
2022-08-03T13:18:56.855Z,1002.09
2022-08-03T13:19:56.853Z,1002.11
2022-08-03T13:20:56.829Z,1002.11
2022-08-03T13:22:04.219Z,1002.08
2022-08-03T13:23:00.603Z,1002.08
2022-08-03T13:23:56.804Z,1002.07
2022-08-03T13:24:56.791Z,1002.07
2022-08-03T13:25:56.784Z,1002.08
2022-08-03T13:26:56.787Z,1002.09
2022-08-03T13:28:05.097Z,1002.08
2022-08-03T13:28:56.759Z,1002.11
2022-08-03T13:29:56.743Z,1002.09
2022-08-03T13:30:56.734Z,1002.10
2022-08-03T13:31:56.741Z,1002.08
2022-08-03T13:32:56.712Z,1002.07
2022-08-03T13:33:56.707Z,1002.05
2022-08-03T13:34:56.693Z,1002.07
2022-08-03T13:35:56.680Z,1002.09
2022-08-03T13:37:08.838Z,1002.08
2022-08-03T13:37:56.748Z,1002.10
2022-08-03T13:38:56.680Z,1002.09
2022-08-03T13:39:58.675Z,1002.08
2022-08-03T13:40:56.639Z,1002.08
2022-08-03T13:41:56.642Z,1002.06
2022-08-03T13:42:56.617Z,1002.03
2022-08-03T13:44:18.533Z,1001.99
2022-08-03T13:44:56.598Z,1002.03
2022-08-03T13:45:56.865Z,1002.03
2022-08-03T13:46:56.597Z,1001.98
2022-08-03T13:47:56.579Z,1001.99
2022-08-03T13:48:56.559Z,1001.97
2022-08-03T13:50:00.156Z,1001.96
2022-08-03T13:50:56.540Z,1001.97
2022-08-03T13:51:56.545Z,1001.97
2022-08-03T13:52:56.515Z,1001.93
2022-08-03T13:53:56.511Z,1001.96
2022-08-03T13:54:56.500Z,1001.98
2022-08-03T13:55:56.489Z,1001.96
2022-08-03T13:58:01.103Z,1001.96
2022-08-03T13:58:23.710Z,1001.94
2022-08-03T13:58:56.461Z,1001.95
2022-08-03T13:59:56.444Z,1001.97
2022-08-03T14:00:56.447Z,1001.98
2022-08-03T14:01:56.500Z,1001.94
2022-08-03T14:03:02.872Z,1001.90
2022-08-03T14:03:56.450Z,1001.90
2022-08-03T14:04:56.405Z,1001.89
2022-08-03T14:05:56.386Z,1001.88
2022-08-03T14:06:56.387Z,1001.87
2022-08-03T14:07:58.262Z,1001.88
2022-08-03T14:09:00.347Z,1001.88
2022-08-03T14:09:56.346Z,1001.87
2022-08-03T14:10:56.347Z,1001.86
2022-08-03T14:12:07.719Z,1001.84
2022-08-03T14:12:56.349Z,1001.86
2022-08-03T14:13:56.340Z,1001.88
2022-08-03T14:14:59.615Z,1001.84
2022-08-03T14:15:56.290Z,1001.84
2022-08-03T14:16:56.289Z,1001.83
2022-08-03T14:17:56.284Z,1001.84
2022-08-03T14:18:56.269Z,1001.82
2022-08-03T14:19:56.250Z,1001.83
2022-08-03T14:20:57.984Z,1001.83
2022-08-03T14:22:06.179Z,1001.81
2022-08-03T14:22:56.247Z,1001.81
2022-08-03T14:23:56.209Z,1001.80
2022-08-03T14:24:56.206Z,1001.80
2022-08-03T14:25:56.194Z,1001.81
2022-08-03T14:27:04.478Z,1001.81
2022-08-03T14:27:56.190Z,1001.80
2022-08-03T14:28:56.165Z,1001.79
2022-08-03T14:29:56.158Z,1001.77
2022-08-03T14:30:56.247Z,1001.80
2022-08-03T14:32:11.529Z,1001.79
2022-08-03T14:33:00.644Z,1001.80
2022-08-03T14:33:56.113Z,1001.78
2022-08-03T14:34:56.109Z,1001.76
2022-08-03T14:35:56.088Z,1001.75
2022-08-03T14:36:56.086Z,1001.74
2022-08-03T14:37:56.086Z,1001.75
2022-08-03T14:39:00.820Z,1001.72
2022-08-03T14:40:00.270Z,1001.70
2022-08-03T14:40:56.051Z,1001.71
2022-08-03T14:41:56.030Z,1001.68
2022-08-03T14:42:56.042Z,1001.68
2022-08-03T14:44:01.451Z,1001.64
2022-08-03T14:45:00.737Z,1001.61
2022-08-03T14:45:55.999Z,1001.65
2022-08-03T14:46:55.986Z,1001.62
2022-08-03T14:50:31.595Z,1001.63
2022-08-03T14:50:50.318Z,1001.64
2022-08-03T14:50:55.531Z,1001.62
2022-08-03T14:51:54.157Z,1001.61
2022-08-03T14:52:53.558Z,1001.58
2022-08-03T14:53:53.561Z,1001.61
2022-08-03T14:54:53.544Z,1001.61
2022-08-03T14:55:53.582Z,1001.60
2022-08-03T14:56:53.516Z,1001.58
2022-08-03T14:57:53.505Z,1001.63
2022-08-03T14:58:53.504Z,1001.61
2022-08-03T14:59:56.174Z,1001.62
2022-08-03T15:00:53.470Z,1001.62
2022-08-03T15:02:04.244Z,1001.63
2022-08-03T15:02:53.502Z,1001.61
2022-08-03T15:03:53.465Z,1001.56
2022-08-03T15:04:53.425Z,1001.54
2022-08-03T15:05:53.449Z,1001.52
2022-08-03T15:06:53.408Z,1001.52
2022-08-03T15:07:53.408Z,1001.51
2022-08-03T15:09:21.169Z,1001.51
2022-08-03T15:09:53.390Z,1001.50
2022-08-03T15:10:53.371Z,1001.48
2022-08-03T15:11:53.363Z,1001.51
2022-08-03T15:12:53.354Z,1001.48
2022-08-03T15:13:53.364Z,1001.48
2022-08-03T15:14:53.337Z,1001.46
2022-08-03T15:15:53.337Z,1001.46
2022-08-03T15:16:53.310Z,1001.47
2022-08-03T15:17:59.818Z,1001.46
2022-08-03T15:18:53.311Z,1001.46
2022-08-03T15:20:01.317Z,1001.46
2022-08-03T15:20:53.281Z,1001.44
2022-08-03T15:21:53.264Z,1001.42
2022-08-03T15:22:53.248Z,1001.41
2022-08-03T15:23:53.258Z,1001.45
2022-08-03T15:24:53.228Z,1001.42
2022-08-03T15:26:29.292Z,1001.41
2022-08-03T15:26:53.217Z,1001.46
2022-08-03T15:28:03.906Z,1001.45
2022-08-03T15:28:53.213Z,1001.43
2022-08-03T15:30:08.809Z,1001.42
2022-08-03T15:30:53.184Z,1001.40
2022-08-03T15:31:53.168Z,1001.41
2022-08-03T15:32:53.154Z,1001.39
2022-08-03T15:33:53.159Z,1001.38
2022-08-03T15:34:53.138Z,1001.35
2022-08-03T15:35:53.212Z,1001.34
2022-08-03T15:36:53.109Z,1001.33
2022-08-03T15:37:53.114Z,1001.31
2022-08-03T15:38:53.178Z,1001.31
2022-08-03T15:39:59.938Z,1001.31
2022-08-03T15:40:53.080Z,1001.31
2022-08-03T15:41:53.069Z,1001.29
2022-08-03T15:42:53.051Z,1001.31
2022-08-03T15:43:53.061Z,1001.31
2022-08-03T15:44:53.054Z,1001.32
2022-08-03T15:46:53.025Z,1001.35
2022-08-03T15:47:53.012Z,1001.34
2022-08-03T15:48:53.009Z,1001.35
2022-08-03T15:49:52.996Z,1001.33
2022-08-03T15:50:52.974Z,1001.33
2022-08-03T15:51:52.971Z,1001.33
2022-08-03T15:52:52.956Z,1001.33
2022-08-03T15:53:52.958Z,1001.36
2022-08-03T15:54:52.936Z,1001.37
2022-08-03T15:55:52.932Z,1001.37
2022-08-03T15:56:52.923Z,1001.36
2022-08-03T15:59:04.449Z,1001.36
2022-08-03T15:59:17.630Z,1001.34
2022-08-03T15:59:52.891Z,1001.34
2022-08-03T16:00:52.900Z,1001.32
2022-08-03T16:01:52.991Z,1001.30
2022-08-03T16:02:55.786Z,1001.31
2022-08-03T16:03:52.890Z,1001.29
2022-08-03T16:04:52.835Z,1001.28
2022-08-03T16:05:52.828Z,1001.29
2022-08-03T16:06:52.821Z,1001.26
2022-08-03T16:08:02.721Z,1001.26
2022-08-03T16:08:52.815Z,1001.27
2022-08-03T16:09:52.792Z,1001.27
2022-08-03T16:10:52.845Z,1001.28
2022-08-03T16:11:52.771Z,1001.28
2022-08-03T16:12:52.753Z,1001.31
2022-08-03T16:14:14.559Z,1001.27
2022-08-03T16:14:53.723Z,1001.28
2022-08-03T16:15:52.730Z,1001.32
2022-08-03T16:16:53.606Z,1001.28
2022-08-03T16:17:52.711Z,1001.31
2022-08-03T16:18:52.711Z,1001.30
2022-08-03T16:19:54.878Z,1001.29
2022-08-03T16:20:52.679Z,1001.28
2022-08-03T16:21:52.672Z,1001.27
2022-08-03T16:22:52.658Z,1001.27
2022-08-03T16:23:52.668Z,1001.24
2022-08-03T16:24:52.640Z,1001.25
2022-08-03T16:25:52.679Z,1001.24
2022-08-03T16:26:52.615Z,1001.24
2022-08-03T16:28:07.072Z,1001.26
2022-08-03T16:28:52.600Z,1001.26
2022-08-03T16:29:52.594Z,1001.24
2022-08-03T16:30:52.584Z,1001.25
2022-08-03T16:31:52.827Z,1001.29
2022-08-03T16:32:52.581Z,1001.27
2022-08-03T16:33:52.615Z,1001.26
2022-08-03T16:34:52.539Z,1001.26
2022-08-03T16:35:52.552Z,1001.26
2022-08-03T16:36:52.522Z,1001.24
2022-08-03T16:37:56.215Z,1001.23
2022-08-03T16:38:52.555Z,1001.23
2022-08-03T16:39:52.567Z,1001.23
2022-08-03T16:40:52.509Z,1001.21
2022-08-03T16:41:54.042Z,1001.22
2022-08-03T16:42:52.463Z,1001.22
2022-08-03T16:43:52.454Z,1001.22
2022-08-03T16:44:52.454Z,1001.21
2022-08-03T16:45:52.433Z,1001.19
2022-08-03T16:46:52.441Z,1001.18
2022-08-03T16:48:01.521Z,1001.19
2022-08-03T16:48:52.404Z,1001.20
2022-08-03T16:49:54.012Z,1001.20
2022-08-03T16:50:52.378Z,1001.22
2022-08-03T16:51:52.369Z,1001.22
2022-08-03T16:52:52.361Z,1001.21